sensor_id;sensor_type;location;lat;lon;timestamp;temperature;humidity
20574;DHT22;10445;50.216;7.912;2023-05-07T00:02:00;13.90;76.20
20574;DHT22;10445;50.216;7.912;2023-05-07T00:04:51;13.80;77.40
20574;DHT22;10445;50.216;7.912;2023-05-07T00:07:39;13.80;77.90
20574;DHT22;10445;50.216;7.912;2023-05-07T00:10:28;13.70;78.90
20574;DHT22;10445;50.216;7.912;2023-05-07T00:13:17;13.70;80.00
20574;DHT22;10445;50.216;7.912;2023-05-07T00:16:07;13.70;81.00
20574;DHT22;10445;50.216;7.912;2023-05-07T00:18:56;13.70;82.20
20574;DHT22;10445;50.216;7.912;2023-05-07T00:21:44;13.60;82.20
20574;DHT22;10445;50.216;7.912;2023-05-07T00:24:33;13.60;82.60
20574;DHT22;10445;50.216;7.912;2023-05-07T00:27:22;13.60;82.40
20574;DHT22;10445;50.216;7.912;2023-05-07T00:30:11;13.60;82.70
20574;DHT22;10445;50.216;7.912;2023-05-07T00:33:01;13.60;82.80
20574;DHT22;10445;50.216;7.912;2023-05-07T00:35:50;13.60;83.60
20574;DHT22;10445;50.216;7.912;2023-05-07T00:38:38;13.60;83.50
20574;DHT22;10445;50.216;7.912;2023-05-07T00:41:27;13.60;83.50
20574;DHT22;10445;50.216;7.912;2023-05-07T00:44:17;13.60;84.10
20574;DHT22;10445;50.216;7.912;2023-05-07T00:47:06;13.60;84.30
20574;DHT22;10445;50.216;7.912;2023-05-07T00:49:57;13.50;84.10
20574;DHT22;10445;50.216;7.912;2023-05-07T00:52:46;13.50;85.10
20574;DHT22;10445;50.216;7.912;2023-05-07T00:55:35;13.50;85.80
20574;DHT22;10445;50.216;7.912;2023-05-07T00:58:24;13.50;86.10
20574;DHT22;10445;50.216;7.912;2023-05-07T01:01:13;13.50;86.70
20574;DHT22;10445;50.216;7.912;2023-05-07T01:04:03;13.40;87.50
20574;DHT22;10445;50.216;7.912;2023-05-07T01:06:54;13.40;87.30
20574;DHT22;10445;50.216;7.912;2023-05-07T01:09:44;13.40;88.00
20574;DHT22;10445;50.216;7.912;2023-05-07T01:12:33;13.40;88.60
20574;DHT22;10445;50.216;7.912;2023-05-07T01:15:22;13.40;89.00
20574;DHT22;10445;50.216;7.912;2023-05-07T01:18:11;13.40;89.80
20574;DHT22;10445;50.216;7.912;2023-05-07T01:21:02;13.40;90.20
20574;DHT22;10445;50.216;7.912;2023-05-07T01:23:54;13.40;90.50
20574;DHT22;10445;50.216;7.912;2023-05-07T01:26:43;13.40;90.70
20574;DHT22;10445;50.216;7.912;2023-05-07T01:29:32;13.40;91.60
20574;DHT22;10445;50.216;7.912;2023-05-07T01:32:25;13.30;91.90
20574;DHT22;10445;50.216;7.912;2023-05-07T01:35:19;13.30;92.20
20574;DHT22;10445;50.216;7.912;2023-05-07T01:38:09;13.20;93.20
20574;DHT22;10445;50.216;7.912;2023-05-07T01:40:59;13.30;93.80
20574;DHT22;10445;50.216;7.912;2023-05-07T01:43:51;13.20;93.90
20574;DHT22;10445;50.216;7.912;2023-05-07T01:46:40;13.20;93.40
20574;DHT22;10445;50.216;7.912;2023-05-07T01:49:29;13.20;92.60
20574;DHT22;10445;50.216;7.912;2023-05-07T01:52:18;13.20;92.10
20574;DHT22;10445;50.216;7.912;2023-05-07T01:55:07;13.20;92.00
20574;DHT22;10445;50.216;7.912;2023-05-07T01:57:57;13.20;91.60
20574;DHT22;10445;50.216;7.912;2023-05-07T02:00:45;13.30;91.20
20574;DHT22;10445;50.216;7.912;2023-05-07T02:03:34;13.30;91.50
20574;DHT22;10445;50.216;7.912;2023-05-07T02:06:23;13.20;91.60
20574;DHT22;10445;50.216;7.912;2023-05-07T02:09:13;13.20;91.80
20574;DHT22;10445;50.216;7.912;2023-05-07T02:12:05;13.30;91.80
20574;DHT22;10445;50.216;7.912;2023-05-07T02:14:55;13.20;91.90
20574;DHT22;10445;50.216;7.912;2023-05-07T02:17:58;13.20;91.80
20574;DHT22;10445;50.216;7.912;2023-05-07T02:20:48;13.20;91.90
20574;DHT22;10445;50.216;7.912;2023-05-07T02:23:37;13.20;93.30
20574;DHT22;10445;50.216;7.912;2023-05-07T02:26:25;13.10;93.40
20574;DHT22;10445;50.216;7.912;2023-05-07T02:29:14;13.10;94.10
20574;DHT22;10445;50.216;7.912;2023-05-07T02:32:04;13.10;94.90
20574;DHT22;10445;50.216;7.912;2023-05-07T02:34:52;13.00;95.10
20574;DHT22;10445;50.216;7.912;2023-05-07T02:37:41;13.00;95.00
20574;DHT22;10445;50.216;7.912;2023-05-07T02:40:30;13.10;94.90
20574;DHT22;10445;50.216;7.912;2023-05-07T02:43:20;13.00;94.20
20574;DHT22;10445;50.216;7.912;2023-05-07T02:46:09;13.00;93.80
20574;DHT22;10445;50.216;7.912;2023-05-07T02:48:59;13.00;93.70
20574;DHT22;10445;50.216;7.912;2023-05-07T02:51:48;13.00;93.70
20574;DHT22;10445;50.216;7.912;2023-05-07T02:54:37;13.00;93.20
20574;DHT22;10445;50.216;7.912;2023-05-07T02:57:25;13.00;94.60
20574;DHT22;10445;50.216;7.912;2023-05-07T03:00:15;13.00;94.70
20574;DHT22;10445;50.216;7.912;2023-05-07T03:03:05;13.00;95.10
20574;DHT22;10445;50.216;7.912;2023-05-07T03:05:55;12.90;96.50
20574;DHT22;10445;50.216;7.912;2023-05-07T03:08:43;12.90;97.20
20574;DHT22;10445;50.216;7.912;2023-05-07T03:11:32;12.90;96.90
20574;DHT22;10445;50.216;7.912;2023-05-07T03:14:20;12.90;97.10
20574;DHT22;10445;50.216;7.912;2023-05-07T03:17:09;12.90;96.90
20574;DHT22;10445;50.216;7.912;2023-05-07T03:19:58;12.90;96.50
20574;DHT22;10445;50.216;7.912;2023-05-07T03:22:48;12.90;96.50
20574;DHT22;10445;50.216;7.912;2023-05-07T03:25:37;12.90;96.00
20574;DHT22;10445;50.216;7.912;2023-05-07T03:28:25;12.90;96.20
20574;DHT22;10445;50.216;7.912;2023-05-07T03:31:14;12.90;95.90
20574;DHT22;10445;50.216;7.912;2023-05-07T03:34:04;12.80;96.20
20574;DHT22;10445;50.216;7.912;2023-05-07T03:36:53;12.90;97.10
20574;DHT22;10445;50.216;7.912;2023-05-07T03:39:43;12.80;98.10
20574;DHT22;10445;50.216;7.912;2023-05-07T03:42:31;12.80;98.60
20574;DHT22;10445;50.216;7.912;2023-05-07T03:45:20;12.70;99.40
20574;DHT22;10445;50.216;7.912;2023-05-07T03:48:09;12.70;99.90
20574;DHT22;10445;50.216;7.912;2023-05-07T03:50:58;12.70;99.90
20574;DHT22;10445;50.216;7.912;2023-05-07T03:53:47;12.70;99.90
20574;DHT22;10445;50.216;7.912;2023-05-07T03:56:37;12.60;99.90
20574;DHT22;10445;50.216;7.912;2023-05-07T03:59:25;12.60;99.90
20574;DHT22;10445;50.216;7.912;2023-05-07T04:02:14;12.60;99.90
20574;DHT22;10445;50.216;7.912;2023-05-07T04:05:03;12.60;99.90
20574;DHT22;10445;50.216;7.912;2023-05-07T04:07:51;12.60;99.90
20574;DHT22;10445;50.216;7.912;2023-05-07T04:10:40;12.60;99.90
20574;DHT22;10445;50.216;7.912;2023-05-07T04:13:31;12.60;99.40
20574;DHT22;10445;50.216;7.912;2023-05-07T04:16:19;12.70;98.40
20574;DHT22;10445;50.216;7.912;2023-05-07T04:19:08;12.70;98.20
20574;DHT22;10445;50.216;7.912;2023-05-07T04:21:56;12.70;97.00
20574;DHT22;10445;50.216;7.912;2023-05-07T04:24:45;12.70;96.90
20574;DHT22;10445;50.216;7.912;2023-05-07T04:27:33;12.70;97.30
20574;DHT22;10445;50.216;7.912;2023-05-07T04:30:24;12.80;97.60
20574;DHT22;10445;50.216;7.912;2023-05-07T04:33:14;12.70;98.40
20574;DHT22;10445;50.216;7.912;2023-05-07T04:36:04;12.70;99.20
20574;DHT22;10445;50.216;7.912;2023-05-07T04:38:53;12.80;99.90
20574;DHT22;10445;50.216;7.912;2023-05-07T04:41:41;12.80;99.90
20574;DHT22;10445;50.216;7.912;2023-05-07T04:44:30;12.80;99.90
20574;DHT22;10445;50.216;7.912;2023-05-07T04:47:20;12.80;99.90
20574;DHT22;10445;50.216;7.912;2023-05-07T04:50:10;12.80;99.90
20574;DHT22;10445;50.216;7.912;2023-05-07T04:52:59;12.80;99.90
20574;DHT22;10445;50.216;7.912;2023-05-07T04:55:48;12.90;99.90
20574;DHT22;10445;50.216;7.912;2023-05-07T04:58:37;12.90;99.90
20574;DHT22;10445;50.216;7.912;2023-05-07T05:01:25;13.00;99.90
20574;DHT22;10445;50.216;7.912;2023-05-07T05:04:15;13.00;99.50
20574;DHT22;10445;50.216;7.912;2023-05-07T05:07:04;13.10;99.60
20574;DHT22;10445;50.216;7.912;2023-05-07T05:09:53;13.10;99.10
20574;DHT22;10445;50.216;7.912;2023-05-07T05:12:41;13.20;99.40
20574;DHT22;10445;50.216;7.912;2023-05-07T05:15:30;13.20;99.00
20574;DHT22;10445;50.216;7.912;2023-05-07T05:18:20;13.20;99.70
20574;DHT22;10445;50.216;7.912;2023-05-07T05:21:10;13.10;99.90
20574;DHT22;10445;50.216;7.912;2023-05-07T05:23:58;13.10;99.90
20574;DHT22;10445;50.216;7.912;2023-05-07T05:26:47;13.20;99.90
20574;DHT22;10445;50.216;7.912;2023-05-07T05:29:36;13.30;99.90
20574;DHT22;10445;50.216;7.912;2023-05-07T05:32:25;13.40;99.90
20574;DHT22;10445;50.216;7.912;2023-05-07T05:35:14;13.50;99.90
20574;DHT22;10445;50.216;7.912;2023-05-07T05:38:04;13.60;99.90
20574;DHT22;10445;50.216;7.912;2023-05-07T05:40:52;13.60;99.40
20574;DHT22;10445;50.216;7.912;2023-05-07T05:43:42;13.70;98.70
20574;DHT22;10445;50.216;7.912;2023-05-07T05:46:31;13.80;99.10
20574;DHT22;10445;50.216;7.912;2023-05-07T05:49:23;13.90;97.70
20574;DHT22;10445;50.216;7.912;2023-05-07T05:52:12;14.10;98.90
20574;DHT22;10445;50.216;7.912;2023-05-07T05:55:02;14.60;97.30
20574;DHT22;10445;50.216;7.912;2023-05-07T05:57:51;15.20;88.50
20574;DHT22;10445;50.216;7.912;2023-05-07T06:00:40;15.50;83.40
20574;DHT22;10445;50.216;7.912;2023-05-07T06:03:29;15.70;77.20
20574;DHT22;10445;50.216;7.912;2023-05-07T06:06:17;16.00;75.10
20574;DHT22;10445;50.216;7.912;2023-05-07T06:09:06;16.20;69.40
20574;DHT22;10445;50.216;7.912;2023-05-07T06:11:56;16.20;68.20
20574;DHT22;10445;50.216;7.912;2023-05-07T06:14:47;16.40;67.10
20574;DHT22;10445;50.216;7.912;2023-05-07T06:17:35;16.60;60.50
20574;DHT22;10445;50.216;7.912;2023-05-07T06:20:24;16.70;61.20
20574;DHT22;10445;50.216;7.912;2023-05-07T06:23:14;16.60;58.20
20574;DHT22;10445;50.216;7.912;2023-05-07T06:26:04;16.50;58.60
20574;DHT22;10445;50.216;7.912;2023-05-07T06:28:54;16.40;59.30
20574;DHT22;10445;50.216;7.912;2023-05-07T06:31:42;16.30;59.30
20574;DHT22;10445;50.216;7.912;2023-05-07T06:34:31;16.30;62.40
20574;DHT22;10445;50.216;7.912;2023-05-07T06:37:20;16.20;66.40
20574;DHT22;10445;50.216;7.912;2023-05-07T06:40:09;16.20;65.50
20574;DHT22;10445;50.216;7.912;2023-05-07T06:42:58;16.20;66.90
20574;DHT22;10445;50.216;7.912;2023-05-07T06:45:48;16.20;68.70
20574;DHT22;10445;50.216;7.912;2023-05-07T06:48:37;16.40;68.90
20574;DHT22;10445;50.216;7.912;2023-05-07T06:51:26;16.40;67.40
20574;DHT22;10445;50.216;7.912;2023-05-07T06:54:14;16.40;62.80
20574;DHT22;10445;50.216;7.912;2023-05-07T06:57:03;16.40;60.00
20574;DHT22;10445;50.216;7.912;2023-05-07T06:59:52;16.40;59.70
20574;DHT22;10445;50.216;7.912;2023-05-07T07:02:42;16.40;62.80
20574;DHT22;10445;50.216;7.912;2023-05-07T07:05:30;16.20;66.00
20574;DHT22;10445;50.216;7.912;2023-05-07T07:08:19;16.10;69.00
20574;DHT22;10445;50.216;7.912;2023-05-07T07:11:09;16.00;70.50
20574;DHT22;10445;50.216;7.912;2023-05-07T07:13:58;16.00;70.50
20574;DHT22;10445;50.216;7.912;2023-05-07T07:16:47;16.00;69.40
20574;DHT22;10445;50.216;7.912;2023-05-07T07:19:37;16.00;71.60
20574;DHT22;10445;50.216;7.912;2023-05-07T07:22:26;16.10;69.40
20574;DHT22;10445;50.216;7.912;2023-05-07T07:25:15;16.10;68.30
20574;DHT22;10445;50.216;7.912;2023-05-07T07:28:04;16.10;68.80
20574;DHT22;10445;50.216;7.912;2023-05-07T07:30:53;16.00;70.60
20574;DHT22;10445;50.216;7.912;2023-05-07T07:33:41;16.20;71.10
20574;DHT22;10445;50.216;7.912;2023-05-07T07:36:31;16.20;68.10
20574;DHT22;10445;50.216;7.912;2023-05-07T07:39:32;16.30;68.60
20574;DHT22;10445;50.216;7.912;2023-05-07T07:42:20;16.30;69.80
20574;DHT22;10445;50.216;7.912;2023-05-07T07:45:10;16.40;69.30
20574;DHT22;10445;50.216;7.912;2023-05-07T07:48:00;16.40;70.00
20574;DHT22;10445;50.216;7.912;2023-05-07T07:50:49;16.50;68.80
20574;DHT22;10445;50.216;7.912;2023-05-07T07:53:39;16.50;68.80
20574;DHT22;10445;50.216;7.912;2023-05-07T07:56:28;16.50;66.80
20574;DHT22;10445;50.216;7.912;2023-05-07T07:59:17;16.50;69.50
20574;DHT22;10445;50.216;7.912;2023-05-07T08:02:06;16.50;67.20
20574;DHT22;10445;50.216;7.912;2023-05-07T08:04:55;16.50;68.50
20574;DHT22;10445;50.216;7.912;2023-05-07T08:07:44;16.70;65.00
20574;DHT22;10445;50.216;7.912;2023-05-07T08:10:34;16.70;66.30
20574;DHT22;10445;50.216;7.912;2023-05-07T08:13:25;17.00;60.30
20574;DHT22;10445;50.216;7.912;2023-05-07T08:16:14;17.10;58.80
20574;DHT22;10445;50.216;7.912;2023-05-07T08:19:03;17.20;55.10
20574;DHT22;10445;50.216;7.912;2023-05-07T08:21:52;17.40;51.50
20574;DHT22;10445;50.216;7.912;2023-05-07T08:24:40;17.60;51.40
20574;DHT22;10445;50.216;7.912;2023-05-07T08:27:30;17.80;48.90
20574;DHT22;10445;50.216;7.912;2023-05-07T08:30:19;18.00;50.50
20574;DHT22;10445;50.216;7.912;2023-05-07T08:33:08;18.10;46.00
20574;DHT22;10445;50.216;7.912;2023-05-07T08:35:57;18.00;43.10
20574;DHT22;10445;50.216;7.912;2023-05-07T08:38:46;17.90;48.00
20574;DHT22;10445;50.216;7.912;2023-05-07T08:41:35;17.90;49.40
20574;DHT22;10445;50.216;7.912;2023-05-07T08:44:26;18.00;50.60
20574;DHT22;10445;50.216;7.912;2023-05-07T08:47:16;18.30;50.80
20574;DHT22;10445;50.216;7.912;2023-05-07T08:50:08;18.60;44.50
20574;DHT22;10445;50.216;7.912;2023-05-07T08:52:57;18.70;42.60
20574;DHT22;10445;50.216;7.912;2023-05-07T08:55:47;18.80;38.70
20574;DHT22;10445;50.216;7.912;2023-05-07T08:58:37;19.00;37.50
20574;DHT22;10445;50.216;7.912;2023-05-07T09:01:27;19.10;27.50
20574;DHT22;10445;50.216;7.912;2023-05-07T09:04:16;19.30;25.70
20574;DHT22;10445;50.216;7.912;2023-05-07T09:07:04;19.50;26.20
20574;DHT22;10445;50.216;7.912;2023-05-07T09:09:53;19.80;22.50
20574;DHT22;10445;50.216;7.912;2023-05-07T09:12:46;19.90;15.60
20574;DHT22;10445;50.216;7.912;2023-05-07T09:15:35;19.90;19.10
20574;DHT22;10445;50.216;7.912;2023-05-07T09:18:25;20.20;12.50
20574;DHT22;10445;50.216;7.912;2023-05-07T09:21:15;20.20;12.00
20574;DHT22;10445;50.216;7.912;2023-05-07T09:24:05;20.40;13.70
20574;DHT22;10445;50.216;7.912;2023-05-07T09:26:54;20.40;11.50
20574;DHT22;10445;50.216;7.912;2023-05-07T09:29:43;20.40;4.20
20574;DHT22;10445;50.216;7.912;2023-05-07T09:32:34;20.70;6.00
20574;DHT22;10445;50.216;7.912;2023-05-07T09:35:25;21.20;7.40
20574;DHT22;10445;50.216;7.912;2023-05-07T09:38:15;21.10;3.60
20574;DHT22;10445;50.216;7.912;2023-05-07T09:41:07;21.00;6.90
20574;DHT22;10445;50.216;7.912;2023-05-07T09:43:56;20.70;1.00
20574;DHT22;10445;50.216;7.912;2023-05-07T09:46:53;20.70;2.20
20574;DHT22;10445;50.216;7.912;2023-05-07T09:49:47;20.60;1.00
20574;DHT22;10445;50.216;7.912;2023-05-07T09:52:38;20.70;1.00
20574;DHT22;10445;50.216;7.912;2023-05-07T09:55:28;20.80;3.60
20574;DHT22;10445;50.216;7.912;2023-05-07T09:58:18;21.00;1.00
20574;DHT22;10445;50.216;7.912;2023-05-07T10:01:07;21.20;1.00
20574;DHT22;10445;50.216;7.912;2023-05-07T10:03:57;21.10;2.10
20574;DHT22;10445;50.216;7.912;2023-05-07T10:06:47;21.30;3.80
20574;DHT22;10445;50.216;7.912;2023-05-07T10:09:37;21.80;1.00
20574;DHT22;10445;50.216;7.912;2023-05-07T10:12:30;22.40;1.00
20574;DHT22;10445;50.216;7.912;2023-05-07T10:15:25;22.30;1.00
20574;DHT22;10445;50.216;7.912;2023-05-07T10:18:15;22.30;1.00
20574;DHT22;10445;50.216;7.912;2023-05-07T10:21:11;22.10;1.00
20574;DHT22;10445;50.216;7.912;2023-05-07T10:24:05;21.70;1.00
20574;DHT22;10445;50.216;7.912;2023-05-07T10:27:12;21.70;1.00
20574;DHT22;10445;50.216;7.912;2023-05-07T10:30:11;21.80;1.00
20574;DHT22;10445;50.216;7.912;2023-05-07T10:33:04;21.60;1.00
20574;DHT22;10445;50.216;7.912;2023-05-07T10:35:58;21.80;1.00
20574;DHT22;10445;50.216;7.912;2023-05-07T10:38:47;21.90;1.00
20574;DHT22;10445;50.216;7.912;2023-05-07T10:41:36;21.80;1.00
20574;DHT22;10445;50.216;7.912;2023-05-07T10:44:27;21.70;1.00
20574;DHT22;10445;50.216;7.912;2023-05-07T10:47:17;21.80;1.00
20574;DHT22;10445;50.216;7.912;2023-05-07T10:50:21;21.90;1.00
20574;DHT22;10445;50.216;7.912;2023-05-07T10:53:24;22.00;1.00
20574;DHT22;10445;50.216;7.912;2023-05-07T10:56:35;22.10;1.00
20574;DHT22;10445;50.216;7.912;2023-05-07T10:59:36;21.60;1.00
20574;DHT22;10445;50.216;7.912;2023-05-07T11:06:14;21.30;1.00
20574;DHT22;10445;50.216;7.912;2023-05-07T11:09:03;21.40;1.00
20574;DHT22;10445;50.216;7.912;2023-05-07T11:11:52;21.60;1.00
20574;DHT22;10445;50.216;7.912;2023-05-07T11:14:44;21.80;1.00
20574;DHT22;10445;50.216;7.912;2023-05-07T11:17:34;22.10;1.00
20574;DHT22;10445;50.216;7.912;2023-05-07T11:20:45;22.40;1.00
20574;DHT22;10445;50.216;7.912;2023-05-07T11:24:07;22.50;1.00
20574;DHT22;10445;50.216;7.912;2023-05-07T11:26:56;22.80;1.00
20574;DHT22;10445;50.216;7.912;2023-05-07T11:29:48;23.20;1.00
20574;DHT22;10445;50.216;7.912;2023-05-07T11:32:37;23.20;1.00
20574;DHT22;10445;50.216;7.912;2023-05-07T11:35:26;23.10;1.00
20574;DHT22;10445;50.216;7.912;2023-05-07T11:38:14;23.10;1.00
20574;DHT22;10445;50.216;7.912;2023-05-07T11:41:03;23.10;1.00
20574;DHT22;10445;50.216;7.912;2023-05-07T11:43:59;23.20;1.00
20574;DHT22;10445;50.216;7.912;2023-05-07T11:46:49;23.00;1.00
20574;DHT22;10445;50.216;7.912;2023-05-07T11:49:38;22.90;1.00
20574;DHT22;10445;50.216;7.912;2023-05-07T11:52:28;23.00;1.00
20574;DHT22;10445;50.216;7.912;2023-05-07T11:55:18;23.10;1.00
20574;DHT22;10445;50.216;7.912;2023-05-07T11:58:07;23.30;1.00
20574;DHT22;10445;50.216;7.912;2023-05-07T12:00:57;23.30;1.00
20574;DHT22;10445;50.216;7.912;2023-05-07T12:03:47;23.10;1.00
20574;DHT22;10445;50.216;7.912;2023-05-07T12:06:36;22.70;1.00
20574;DHT22;10445;50.216;7.912;2023-05-07T12:09:26;22.20;1.00
20574;DHT22;10445;50.216;7.912;2023-05-07T12:12:14;22.40;1.00
20574;DHT22;10445;50.216;7.912;2023-05-07T12:15:05;23.20;1.00
20574;DHT22;10445;50.216;7.912;2023-05-07T12:17:54;23.90;1.00
20574;DHT22;10445;50.216;7.912;2023-05-07T12:20:44;23.90;1.00
20574;DHT22;10445;50.216;7.912;2023-05-07T12:23:34;23.80;1.00
20574;DHT22;10445;50.216;7.912;2023-05-07T12:26:24;23.90;1.00
20574;DHT22;10445;50.216;7.912;2023-05-07T12:29:13;23.20;1.00
20574;DHT22;10445;50.216;7.912;2023-05-07T12:32:01;22.80;1.00
20574;DHT22;10445;50.216;7.912;2023-05-07T12:34:53;22.80;1.00
20574;DHT22;10445;50.216;7.912;2023-05-07T12:37:43;23.10;1.00
20574;DHT22;10445;50.216;7.912;2023-05-07T12:40:39;22.90;1.00
20574;DHT22;10445;50.216;7.912;2023-05-07T12:43:28;23.00;1.00
20574;DHT22;10445;50.216;7.912;2023-05-07T12:46:17;23.30;1.00
20574;DHT22;10445;50.216;7.912;2023-05-07T12:49:06;23.40;1.00
20574;DHT22;10445;50.216;7.912;2023-05-07T12:51:55;23.40;1.00
20574;DHT22;10445;50.216;7.912;2023-05-07T12:54:45;23.20;1.00
20574;DHT22;10445;50.216;7.912;2023-05-07T12:57:38;22.70;1.00
20574;DHT22;10445;50.216;7.912;2023-05-07T13:00:34;22.40;1.00
20574;DHT22;10445;50.216;7.912;2023-05-07T13:03:25;22.00;1.00
20574;DHT22;10445;50.216;7.912;2023-05-07T13:06:14;21.30;1.00
20574;DHT22;10445;50.216;7.912;2023-05-07T13:09:02;20.80;1.00
20574;DHT22;10445;50.216;7.912;2023-05-07T13:11:54;20.50;1.00
20574;DHT22;10445;50.216;7.912;2023-05-07T13:14:43;20.30;1.00
20574;DHT22;10445;50.216;7.912;2023-05-07T13:17:31;20.30;1.00
20574;DHT22;10445;50.216;7.912;2023-05-07T13:20:20;20.30;1.00
20574;DHT22;10445;50.216;7.912;2023-05-07T13:23:09;20.30;1.00
20574;DHT22;10445;50.216;7.912;2023-05-07T13:25:58;20.50;1.00
20574;DHT22;10445;50.216;7.912;2023-05-07T13:28:54;20.70;1.00
20574;DHT22;10445;50.216;7.912;2023-05-07T13:31:42;20.80;1.00
20574;DHT22;10445;50.216;7.912;2023-05-07T13:34:31;21.10;1.00
20574;DHT22;10445;50.216;7.912;2023-05-07T13:37:20;21.40;1.00
20574;DHT22;10445;50.216;7.912;2023-05-07T13:40:09;21.70;1.00
20574;DHT22;10445;50.216;7.912;2023-05-07T13:42:59;22.70;1.00
20574;DHT22;10445;50.216;7.912;2023-05-07T13:45:50;23.30;1.00
20574;DHT22;10445;50.216;7.912;2023-05-07T13:48:39;23.30;1.00
20574;DHT22;10445;50.216;7.912;2023-05-07T13:51:27;22.70;1.00
20574;DHT22;10445;50.216;7.912;2023-05-07T13:54:16;22.20;1.00
20574;DHT22;10445;50.216;7.912;2023-05-07T13:57:05;22.10;1.00
20574;DHT22;10445;50.216;7.912;2023-05-07T13:59:53;21.90;1.00
20574;DHT22;10445;50.216;7.912;2023-05-07T14:02:44;22.00;1.00
20574;DHT22;10445;50.216;7.912;2023-05-07T14:05:32;21.70;1.00
20574;DHT22;10445;50.216;7.912;2023-05-07T14:08:21;21.30;1.00
20574;DHT22;10445;50.216;7.912;2023-05-07T14:11:10;21.00;1.00
20574;DHT22;10445;50.216;7.912;2023-05-07T14:13:58;21.00;1.00
20574;DHT22;10445;50.216;7.912;2023-05-07T14:16:47;21.00;1.00
20574;DHT22;10445;50.216;7.912;2023-05-07T14:19:38;21.70;1.00
20574;DHT22;10445;50.216;7.912;2023-05-07T14:22:27;22.50;1.00
20574;DHT22;10445;50.216;7.912;2023-05-07T14:25:16;22.70;1.00
20574;DHT22;10445;50.216;7.912;2023-05-07T14:28:05;23.00;1.00
20574;DHT22;10445;50.216;7.912;2023-05-07T14:30:55;23.50;1.00
20574;DHT22;10445;50.216;7.912;2023-05-07T14:33:43;23.90;1.00
20574;DHT22;10445;50.216;7.912;2023-05-07T14:36:33;24.10;1.00
20574;DHT22;10445;50.216;7.912;2023-05-07T14:39:22;24.20;1.00
20574;DHT22;10445;50.216;7.912;2023-05-07T14:42:11;24.10;1.00
20574;DHT22;10445;50.216;7.912;2023-05-07T14:44:59;23.60;1.00
20574;DHT22;10445;50.216;7.912;2023-05-07T14:47:48;23.60;1.00
20574;DHT22;10445;50.216;7.912;2023-05-07T14:50:37;23.60;1.00
20574;DHT22;10445;50.216;7.912;2023-05-07T14:53:27;23.20;1.00
20574;DHT22;10445;50.216;7.912;2023-05-07T14:56:15;22.50;1.00
20574;DHT22;10445;50.216;7.912;2023-05-07T14:59:04;22.30;1.00
20574;DHT22;10445;50.216;7.912;2023-05-07T15:01:54;21.90;1.00
20574;DHT22;10445;50.216;7.912;2023-05-07T15:04:42;21.50;1.00
20574;DHT22;10445;50.216;7.912;2023-05-07T15:07:33;21.60;1.00
20574;DHT22;10445;50.216;7.912;2023-05-07T15:10:23;21.40;1.00
20574;DHT22;10445;50.216;7.912;2023-05-07T15:13:12;21.30;1.00
20574;DHT22;10445;50.216;7.912;2023-05-07T15:16:02;21.40;1.00
20574;DHT22;10445;50.216;7.912;2023-05-07T15:18:51;21.40;1.00
20574;DHT22;10445;50.216;7.912;2023-05-07T15:21:39;21.50;1.00
20574;DHT22;10445;50.216;7.912;2023-05-07T15:24:28;21.40;1.00
20574;DHT22;10445;50.216;7.912;2023-05-07T15:27:18;21.20;1.00
20574;DHT22;10445;50.216;7.912;2023-05-07T15:30:08;21.10;1.00
20574;DHT22;10445;50.216;7.912;2023-05-07T15:32:58;20.90;1.00
20574;DHT22;10445;50.216;7.912;2023-05-07T15:35:46;20.70;1.00
20574;DHT22;10445;50.216;7.912;2023-05-07T15:38:35;20.80;1.00
20574;DHT22;10445;50.216;7.912;2023-05-07T15:41:24;20.70;1.00
20574;DHT22;10445;50.216;7.912;2023-05-07T15:44:14;20.70;1.00
20574;DHT22;10445;50.216;7.912;2023-05-07T15:47:03;20.60;1.00
20574;DHT22;10445;50.216;7.912;2023-05-07T15:49:52;20.40;1.00
20574;DHT22;10445;50.216;7.912;2023-05-07T15:52:40;20.20;1.00
20574;DHT22;10445;50.216;7.912;2023-05-07T15:55:29;20.10;1.00
20574;DHT22;10445;50.216;7.912;2023-05-07T15:58:18;20.00;1.00
20574;DHT22;10445;50.216;7.912;2023-05-07T16:01:08;19.90;1.00
20574;DHT22;10445;50.216;7.912;2023-05-07T16:03:57;20.00;1.00
20574;DHT22;10445;50.216;7.912;2023-05-07T16:06:46;20.00;1.00
20574;DHT22;10445;50.216;7.912;2023-05-07T16:09:35;19.90;1.00
20574;DHT22;10445;50.216;7.912;2023-05-07T16:12:23;19.80;1.00
20574;DHT22;10445;50.216;7.912;2023-05-07T16:15:12;19.80;1.00
20574;DHT22;10445;50.216;7.912;2023-05-07T16:18:02;19.80;1.00
20574;DHT22;10445;50.216;7.912;2023-05-07T16:20:51;19.70;1.00
20574;DHT22;10445;50.216;7.912;2023-05-07T16:23:40;19.60;1.00
20574;DHT22;10445;50.216;7.912;2023-05-07T16:26:29;19.60;1.00
20574;DHT22;10445;50.216;7.912;2023-05-07T16:29:18;19.50;1.00
20574;DHT22;10445;50.216;7.912;2023-05-07T16:32:07;19.50;1.00
20574;DHT22;10445;50.216;7.912;2023-05-07T16:34:57;19.40;1.00
20574;DHT22;10445;50.216;7.912;2023-05-07T16:37:45;19.30;2.50
20574;DHT22;10445;50.216;7.912;2023-05-07T16:40:36;19.10;10.00
20574;DHT22;10445;50.216;7.912;2023-05-07T16:43:25;18.70;17.40
20574;DHT22;10445;50.216;7.912;2023-05-07T16:46:14;18.20;27.70
20574;DHT22;10445;50.216;7.912;2023-05-07T16:49:03;17.60;45.90
20574;DHT22;10445;50.216;7.912;2023-05-07T16:51:53;16.90;64.70
20574;DHT22;10445;50.216;7.912;2023-05-07T16:54:42;16.50;75.40
20574;DHT22;10445;50.216;7.912;2023-05-07T16:57:30;16.30;84.10
20574;DHT22;10445;50.216;7.912;2023-05-07T17:00:19;15.70;76.40
20574;DHT22;10445;50.216;7.912;2023-05-07T17:03:07;15.30;84.80
20574;DHT22;10445;50.216;7.912;2023-05-07T17:05:56;15.20;94.50
20574;DHT22;10445;50.216;7.912;2023-05-07T17:08:47;15.10;96.60
20574;DHT22;10445;50.216;7.912;2023-05-07T17:11:37;15.00;99.50
20574;DHT22;10445;50.216;7.912;2023-05-07T17:14:26;14.70;96.50
20574;DHT22;10445;50.216;7.912;2023-05-07T17:17:15;14.20;87.40
20574;DHT22;10445;50.216;7.912;2023-05-07T17:20:04;13.80;93.80
20574;DHT22;10445;50.216;7.912;2023-05-07T17:22:53;13.80;99.90
20574;DHT22;10445;50.216;7.912;2023-05-07T17:25:43;13.70;99.90
20574;DHT22;10445;50.216;7.912;2023-05-07T17:28:32;13.60;99.90
20574;DHT22;10445;50.216;7.912;2023-05-07T17:31:21;13.60;99.90
20574;DHT22;10445;50.216;7.912;2023-05-07T17:34:10;13.60;99.90
20574;DHT22;10445;50.216;7.912;2023-05-07T17:36:59;13.60;99.90
20574;DHT22;10445;50.216;7.912;2023-05-07T17:39:47;13.70;99.90
20574;DHT22;10445;50.216;7.912;2023-05-07T17:42:37;13.80;99.90
20574;DHT22;10445;50.216;7.912;2023-05-07T17:45:26;13.90;99.90
20574;DHT22;10445;50.216;7.912;2023-05-07T17:48:15;14.00;99.90
20574;DHT22;10445;50.216;7.912;2023-05-07T17:51:04;14.10;99.90
20574;DHT22;10445;50.216;7.912;2023-05-07T17:53:53;14.10;99.90
20574;DHT22;10445;50.216;7.912;2023-05-07T17:56:42;14.10;99.90
20574;DHT22;10445;50.216;7.912;2023-05-07T17:59:32;14.20;99.90
20574;DHT22;10445;50.216;7.912;2023-05-07T18:28:54;14.10;99.90
20574;DHT22;10445;50.216;7.912;2023-05-07T19:47:02;13.80;99.90